createdAt,value
2016-04-18T00:00:29.755Z,0
2016-04-18T00:01:29.539Z,0
2016-04-18T00:02:39.542Z,0
2016-04-18T00:03:29.654Z,0
2016-04-18T00:04:28.703Z,0
2016-04-18T00:05:28.566Z,0
2016-04-18T00:06:28.803Z,0
2016-04-18T00:08:29.527Z,0
2016-04-18T00:09:29.279Z,0
2016-04-18T00:10:28.814Z,0
2016-04-18T00:11:29.769Z,0
2016-04-18T00:12:28.569Z,0
2016-04-18T00:13:29.852Z,0
2016-04-18T00:14:35.792Z,0
2016-04-18T00:15:28.644Z,0
2016-04-18T00:16:40.111Z,0
2016-04-18T00:17:28.673Z,0
2016-04-18T00:18:28.688Z,0
2016-04-18T00:19:29.515Z,0
2016-04-18T00:21:28.940Z,0
2016-04-18T00:22:30.020Z,0
2016-04-18T00:23:37.320Z,0
2016-04-18T00:24:29.745Z,0
2016-04-18T00:25:29.086Z,0
2016-04-18T00:26:28.657Z,0
2016-04-18T00:27:38.134Z,0
2016-04-18T00:28:29.689Z,0
2016-04-18T00:29:28.589Z,0
2016-04-18T00:30:29.939Z,0
2016-04-18T00:31:39.678Z,0
2016-04-18T00:32:29.838Z,0
2016-04-18T00:33:28.421Z,0
2016-04-18T00:34:28.472Z,0
2016-04-18T00:36:29.715Z,0
2016-04-18T00:37:28.530Z,0
2016-04-18T00:38:28.675Z,0
2016-04-18T00:39:39.615Z,0
2016-04-18T00:40:28.478Z,0
2016-04-18T00:41:29.918Z,0
2016-04-18T00:42:29.781Z,0
2016-04-18T00:44:29.303Z,0
2016-04-18T00:45:29.306Z,0
2016-04-18T00:46:28.621Z,0
2016-04-18T00:47:29.670Z,0
2016-04-18T00:48:28.391Z,0
2016-04-18T00:49:28.426Z,0
2016-04-18T00:50:29.617Z,0
2016-04-18T00:52:30.309Z,0
2016-04-18T00:53:29.436Z,0
2016-04-18T00:54:29.127Z,0
2016-04-18T00:55:29.864Z,0
2016-04-18T00:56:38.258Z,0
2016-04-18T00:57:29.354Z,0
2016-04-18T00:58:29.732Z,0
2016-04-18T00:59:37.032Z,0
2016-04-18T01:00:37.988Z,0
2016-04-18T01:01:28.177Z,0
2016-04-18T01:03:24.463Z,0
2016-04-18T01:05:06.001Z,0
2016-04-18T01:06:56.631Z,0
2016-04-18T01:08:46.509Z,0
2016-04-18T01:10:23.498Z,0
2016-04-18T01:12:09.582Z,0
2016-04-18T01:13:49.884Z,0
2016-04-18T01:15:40.808Z,0
2016-04-18T01:17:25.611Z,0
2016-04-18T01:19:12.070Z,0
2016-04-18T01:20:59.230Z,0
2016-04-18T01:22:32.734Z,0
2016-04-18T01:24:21.207Z,0
2016-04-18T01:26:02.151Z,0
2016-04-18T01:27:52.172Z,0
2016-04-18T01:30:00.115Z,0
2016-04-18T01:31:57.307Z,0
2016-04-18T01:32:12.635Z,0
2016-04-18T01:33:23.638Z,0
2016-04-18T01:35:14.550Z,0
2016-04-18T01:36:52.227Z,0
2016-04-18T01:38:14.448Z,0
2016-04-18T01:39:37.185Z,0
2016-04-18T01:40:59.598Z,0
2016-04-18T01:43:55.637Z,0
2016-04-18T01:45:16.109Z,0
2016-04-18T01:46:33.658Z,0
2016-04-18T01:47:58.600Z,0
2016-04-18T01:49:16.947Z,0
2016-04-18T01:50:32.543Z,0
2016-04-18T01:51:52.017Z,0
2016-04-18T01:53:09.333Z,0
2016-04-18T01:54:23.991Z,0
2016-04-18T01:55:43.275Z,0
2016-04-18T01:57:07.500Z,0
2016-04-18T01:58:29.424Z,0
2016-04-18T01:59:52.288Z,0
2016-04-18T02:01:15.869Z,0
2016-04-18T02:02:41.013Z,0
2016-04-18T02:04:02.863Z,0
2016-04-18T02:05:24.818Z,0
2016-04-18T02:06:19.086Z,0
2016-04-18T02:06:55.229Z,0
2016-04-18T02:07:54.639Z,0
2016-04-18T02:08:54.266Z,0
2016-04-18T02:09:55.034Z,0
2016-04-18T02:11:54.759Z,0
2016-04-18T02:13:02.887Z,0
2016-04-18T02:14:02.029Z,0
2016-04-18T02:15:07.032Z,0
2016-04-18T02:15:54.614Z,0
2016-04-18T02:16:54.772Z,0
2016-04-18T02:18:02.994Z,0
2016-04-18T02:18:54.622Z,0
2016-04-18T02:21:02.955Z,0
2016-04-18T02:21:54.755Z,0
2016-04-18T02:22:54.913Z,0
2016-04-18T02:23:54.541Z,0
2016-04-18T02:25:04.808Z,0
2016-04-18T02:25:54.750Z,0
2016-04-18T02:26:54.689Z,0
2016-04-18T02:27:54.208Z,0
2016-04-18T02:30:03.776Z,0
2016-04-18T02:30:54.200Z,0
2016-04-18T02:31:56.110Z,0
2016-04-18T02:32:53.596Z,0
2016-04-18T02:34:02.755Z,0
2016-04-18T02:34:53.540Z,0
2016-04-18T02:35:54.479Z,0
2016-04-18T02:36:53.513Z,0
2016-04-18T02:37:54.343Z,0
2016-04-18T02:38:53.801Z,0
2016-04-18T02:39:54.569Z,0
2016-04-18T02:40:54.571Z,0
2016-04-18T02:41:54.512Z,0
2016-04-18T02:42:53.264Z,0
2016-04-18T02:43:53.328Z,0
2016-04-18T02:44:54.316Z,0
2016-04-18T02:45:53.772Z,0
2016-04-18T02:46:53.431Z,0
2016-04-18T02:47:54.620Z,0
2016-04-18T02:48:53.467Z,0
2016-04-18T02:49:53.470Z,0
2016-04-18T02:51:03.004Z,0
2016-04-18T02:51:54.131Z,0
2016-04-18T02:52:53.947Z,0
2016-04-18T02:53:54.528Z,0
2016-04-18T02:54:55.359Z,0
2016-04-18T02:55:54.221Z,0
2016-04-18T02:56:54.208Z,0
2016-04-18T02:57:53.897Z,0
2016-04-18T02:58:53.339Z,0
2016-04-18T02:59:54.043Z,0
2016-04-18T03:00:53.766Z,0
2016-04-18T03:01:54.658Z,0
2016-04-18T03:02:53.974Z,0
2016-04-18T03:03:54.226Z,0
2016-04-18T03:04:53.510Z,0
2016-04-18T03:05:53.060Z,0
2016-04-18T03:06:54.501Z,0
2016-04-18T03:07:53.363Z,0
2016-04-18T03:08:54.632Z,0
2016-04-18T03:09:54.727Z,0
2016-04-18T03:10:54.183Z,0
2016-04-18T03:11:52.920Z,0
2016-04-18T03:12:52.907Z,0
2016-04-18T03:13:53.988Z,0
2016-04-18T03:14:54.116Z,0
2016-04-18T03:15:52.978Z,0
2016-04-18T03:16:54.215Z,0
2016-04-18T03:17:53.781Z,0
2016-04-18T03:18:52.892Z,0
2016-04-18T03:19:53.895Z,0
2016-04-18T03:20:52.725Z,0
2016-04-18T03:21:54.041Z,0
2016-04-18T03:22:54.137Z,0
2016-04-18T03:23:54.328Z,0
2016-04-18T03:24:53.861Z,0
2016-04-18T03:25:53.333Z,0
2016-04-18T03:26:53.554Z,0
2016-04-18T03:28:42.635Z,0
2016-04-18T03:30:37.812Z,0
2016-04-18T03:32:25.802Z,0
2016-04-18T03:34:34.948Z,0
2016-04-18T03:36:44.687Z,0
2016-04-18T03:38:39.240Z,0
2016-04-18T03:40:42.199Z,0
2016-04-18T03:43:15.629Z,0
2016-04-18T03:45:42.228Z,8
2016-04-18T03:47:57.689Z,8
2016-04-18T03:50:06.819Z,8
2016-04-18T03:52:41.012Z,16
2016-04-18T03:54:35.892Z,24
2016-04-18T03:57:00.556Z,28
2016-04-18T03:57:44.775Z,36
2016-04-18T03:58:45.184Z,44
2016-04-18T03:59:45.703Z,48
2016-04-18T04:00:45.158Z,56
2016-04-18T04:01:44.317Z,64
2016-04-18T04:02:45.586Z,72
2016-04-18T04:03:44.292Z,80
2016-04-18T04:04:44.544Z,92
2016-04-18T04:05:45.250Z,104
2016-04-18T04:06:44.471Z,116
2016-04-18T04:07:45.099Z,128
2016-04-18T04:08:45.493Z,144
2016-04-18T04:09:44.260Z,156
2016-04-18T04:10:45.170Z,176
2016-04-18T04:11:45.032Z,188
2016-04-18T04:13:45.584Z,224
2016-04-18T04:14:45.509Z,244
2016-04-18T04:15:45.230Z,260
2016-04-18T04:16:44.389Z,280
2016-04-18T04:17:45.501Z,300
2016-04-18T04:18:45.176Z,320
2016-04-18T04:19:45.225Z,348
2016-04-18T04:20:44.181Z,376
2016-04-18T04:21:44.199Z,420
2016-04-18T04:22:45.156Z,480
2016-04-18T04:23:45.236Z,532
2016-04-18T04:24:45.036Z,568
2016-04-18T04:25:45.039Z,580
2016-04-18T04:26:45.088Z,588
2016-04-18T04:27:45.934Z,588
2016-04-18T04:28:44.108Z,596
2016-04-18T04:29:43.940Z,612
2016-04-18T04:30:45.145Z,644
2016-04-18T04:31:44.227Z,692
2016-04-18T04:32:45.275Z,744
2016-04-18T04:33:45.091Z,796
2016-04-18T04:34:45.406Z,868
2016-04-18T04:35:44.940Z,952
2016-04-18T04:36:44.333Z,1012
2016-04-18T04:37:44.945Z,1040
2016-04-18T04:38:44.901Z,1068
2016-04-18T04:39:45.388Z,1088
2016-04-18T04:41:45.035Z,1064
2016-04-18T04:42:44.615Z,1088
2016-04-18T04:43:44.930Z,1192
2016-04-18T04:44:45.151Z,1320
2016-04-18T04:45:44.092Z,1368
2016-04-18T04:46:46.609Z,1364
2016-04-18T04:48:44.692Z,1388
2016-04-18T04:49:45.180Z,1448
2016-04-18T04:50:44.948Z,1544
2016-04-18T04:51:45.311Z,1560
2016-04-18T04:52:54.644Z,1584
2016-04-18T04:53:43.816Z,1580
2016-04-18T04:54:52.446Z,1564
2016-04-18T04:55:44.665Z,1580
2016-04-18T04:56:44.996Z,1612
2016-04-18T04:57:44.874Z,1652
2016-04-18T04:58:45.126Z,1720
2016-04-18T04:59:54.069Z,1944
2016-04-18T05:00:45.038Z,2128
2016-04-18T05:01:44.806Z,2424
2016-04-18T05:02:45.043Z,2620
2016-04-18T05:03:44.748Z,2684
2016-04-18T05:04:45.142Z,2736
2016-04-18T05:05:43.520Z,2908
2016-04-18T05:06:44.757Z,2956
2016-04-18T05:07:45.135Z,3024
2016-04-18T05:08:45.418Z,3240
2016-04-18T05:09:45.656Z,3400
2016-04-18T05:10:45.298Z,3580
2016-04-18T05:11:43.786Z,3880
2016-04-18T05:12:44.445Z,4140
2016-04-18T05:13:45.134Z,4308
2016-04-18T05:14:46.684Z,4580
2016-04-18T05:15:46.156Z,4988
2016-04-18T05:16:45.268Z,5544
2016-04-18T05:17:43.520Z,5796
2016-04-18T05:18:44.680Z,5864
2016-04-18T05:19:45.713Z,6052
2016-04-18T05:20:43.247Z,5800
2016-04-18T05:21:44.438Z,4956
2016-04-18T05:22:45.144Z,4204
2016-04-18T05:23:43.411Z,3908
2016-04-18T05:24:44.586Z,3900
2016-04-18T05:25:43.449Z,4008
2016-04-18T05:26:42.935Z,4696
2016-04-18T05:27:43.563Z,5232
2016-04-18T05:28:44.409Z,5704
2016-04-18T05:29:43.246Z,5884
2016-04-18T05:30:43.702Z,6076
2016-04-18T05:31:43.314Z,6132
2016-04-18T05:32:43.145Z,6200
2016-04-18T05:34:26.635Z,5664
2016-04-18T05:35:59.687Z,4844
2016-04-18T05:37:21.033Z,4536
2016-04-18T05:39:19.461Z,3956
2016-04-18T05:40:29.932Z,3752
2016-04-18T05:41:57.375Z,3420
2016-04-18T05:43:18.674Z,3328
2016-04-18T05:44:35.442Z,3528
2016-04-18T05:45:57.495Z,3804
2016-04-18T05:47:24.184Z,4236
2016-04-18T05:48:48.860Z,4932
2016-04-18T05:50:11.693Z,5776
2016-04-18T05:51:34.086Z,6080
2016-04-18T05:52:59.248Z,5900
2016-04-18T05:54:24.923Z,6100
2016-04-18T05:55:45.489Z,6480
2016-04-18T05:57:10.650Z,6648
2016-04-18T05:58:45.247Z,6664
2016-04-18T06:00:28.549Z,7488
2016-04-18T06:02:03.616Z,7592
2016-04-18T06:03:39.619Z,7216
2016-04-18T06:03:55.263Z,7340
2016-04-18T06:04:56.266Z,7588
2016-04-18T06:05:56.502Z,7668
2016-04-18T06:06:55.271Z,7508
2016-04-18T06:07:55.554Z,7468
2016-04-18T06:08:56.260Z,7464
2016-04-18T06:09:55.403Z,7440
2016-04-18T06:10:57.343Z,7760
2016-04-18T06:11:56.096Z,7972
2016-04-18T06:13:55.493Z,8288
2016-04-18T06:14:56.573Z,8400
2016-04-18T06:15:55.123Z,8320
2016-04-18T06:16:55.172Z,8412
2016-04-18T06:17:56.426Z,8392
2016-04-18T06:18:56.084Z,8384
2016-04-18T06:19:55.134Z,8576
2016-04-18T06:20:55.870Z,8556
2016-04-18T06:21:55.983Z,8248
2016-04-18T06:22:56.094Z,8588
2016-04-18T06:23:55.050Z,9188
2016-04-18T06:24:56.334Z,9408
2016-04-18T06:25:55.931Z,9376
2016-04-18T06:27:03.028Z,9684
2016-04-18T06:27:55.280Z,10148
2016-04-18T06:28:56.033Z,10328
2016-04-18T06:29:55.926Z,10452
2016-04-18T06:30:56.788Z,10520
2016-04-18T06:31:56.088Z,10668
2016-04-18T06:32:55.012Z,10828
2016-04-18T06:33:55.672Z,11108
2016-04-18T06:34:55.768Z,11364
2016-04-18T06:35:55.192Z,11564
2016-04-18T06:36:55.977Z,12328
2016-04-18T06:37:55.854Z,12304
2016-04-18T06:38:55.856Z,12284
2016-04-18T06:39:55.360Z,12208
2016-04-18T06:40:55.784Z,13560
2016-04-18T06:41:55.677Z,13236
2016-04-18T06:42:56.336Z,13140
2016-04-18T06:43:55.917Z,13028
2016-04-18T06:45:55.031Z,13688
2016-04-18T06:46:55.987Z,13092
2016-04-18T06:47:56.193Z,13052
2016-04-18T06:48:55.852Z,12360
2016-04-18T06:49:55.074Z,12668
2016-04-18T06:50:55.639Z,12772
2016-04-18T06:51:56.251Z,12756
2016-04-18T06:52:55.675Z,14192
2016-04-18T06:53:56.022Z,14544
2016-04-18T06:54:55.400Z,16704
2016-04-18T06:55:55.606Z,36352
2016-04-18T06:56:55.858Z,24000
2016-04-18T06:57:55.033Z,18720
2016-04-18T06:58:56.769Z,30048
2016-04-18T06:59:55.975Z,27200
2016-04-18T07:00:55.758Z,26720
2016-04-18T07:01:56.058Z,23840
2016-04-18T07:02:55.718Z,25024
2016-04-18T07:03:55.079Z,31424
2016-04-18T07:04:54.723Z,23264
2016-04-18T07:05:55.976Z,30112
2016-04-18T07:06:55.244Z,21664
2016-04-18T07:07:55.872Z,25952
2016-04-18T07:08:54.685Z,32000
2016-04-18T07:09:55.987Z,42208
2016-04-18T07:10:55.615Z,46272
2016-04-18T07:11:56.117Z,14068
2016-04-18T07:12:55.276Z,17376
2016-04-18T07:13:54.997Z,26368
2016-04-18T07:14:55.782Z,31648
2016-04-18T07:15:54.862Z,36928
2016-04-18T07:16:55.584Z,35776
2016-04-18T07:17:55.992Z,13240
2016-04-18T07:18:55.917Z,15660
2016-04-18T07:19:55.388Z,19680
2016-04-18T07:20:55.923Z,25632
2016-04-18T07:21:54.947Z,13820
2016-04-18T07:22:56.028Z,9412
2016-04-18T07:23:55.891Z,8144
2016-04-18T07:24:55.612Z,7344
2016-04-18T07:25:55.318Z,7300
2016-04-18T07:26:55.930Z,6356
2016-04-18T07:27:55.574Z,6128
2016-04-18T07:28:56.185Z,5968
2016-04-18T07:29:56.610Z,5800
2016-04-18T07:30:54.516Z,5520
2016-04-18T07:31:55.584Z,5416
2016-04-18T07:33:04.790Z,5548
2016-04-18T07:33:55.402Z,5744
2016-04-18T07:34:55.920Z,6148
2016-04-18T07:35:55.626Z,6444
2016-04-18T07:36:55.815Z,6084
2016-04-18T07:37:55.412Z,5392
2016-04-18T07:38:54.412Z,5172
2016-04-18T07:39:55.292Z,4800
2016-04-18T07:40:55.608Z,4700
2016-04-18T07:42:54.751Z,5460
2016-04-18T07:43:54.378Z,5644
2016-04-18T07:44:57.150Z,5828
2016-04-18T07:45:56.199Z,6008
2016-04-18T07:46:54.574Z,6208
2016-04-18T07:47:55.392Z,6300
2016-04-18T07:48:54.392Z,6516
2016-04-18T07:49:54.551Z,7080
2016-04-18T07:50:54.633Z,7524
2016-04-18T07:51:55.731Z,7772
2016-04-18T07:52:55.312Z,7688
2016-04-18T07:53:54.500Z,7312
2016-04-18T07:54:55.661Z,6612
2016-04-18T07:55:54.489Z,6376
2016-04-18T07:56:54.585Z,6492
2016-04-18T07:57:55.779Z,6500
2016-04-18T07:58:54.716Z,6108
2016-04-18T07:59:54.516Z,5280
2016-04-18T08:00:55.237Z,5288
2016-04-18T08:01:54.740Z,5500
2016-04-18T08:02:54.351Z,5568
2016-04-18T08:03:56.779Z,5704
2016-04-18T08:04:56.798Z,6044
2016-04-18T08:05:54.907Z,6160
2016-04-18T08:06:54.331Z,6324
2016-04-18T08:07:55.915Z,6580
2016-04-18T08:08:55.684Z,6820
2016-04-18T08:09:55.748Z,6996
2016-04-18T08:10:55.139Z,7140
2016-04-18T08:12:54.831Z,6552
2016-04-18T08:13:55.915Z,6160
2016-04-18T08:14:57.558Z,5864
2016-04-18T08:15:56.030Z,5984
2016-04-18T08:16:55.533Z,5776
2016-04-18T08:17:55.598Z,5432
2016-04-18T08:18:55.395Z,5388
2016-04-18T08:19:54.225Z,5244
2016-04-18T08:20:55.370Z,5212
2016-04-18T08:21:54.341Z,5500
2016-04-18T08:22:55.534Z,5740
2016-04-18T08:23:56.193Z,5792
2016-04-18T08:24:54.256Z,5808
2016-04-18T08:26:55.541Z,5908
2016-04-18T08:27:55.075Z,5836
2016-04-18T08:28:55.546Z,5896
2016-04-18T08:29:55.471Z,5720
2016-04-18T08:30:56.211Z,5600
2016-04-18T08:31:54.086Z,5564
2016-04-18T08:32:56.749Z,5432
2016-04-18T08:33:56.391Z,5436
2016-04-18T08:34:55.610Z,5216
2016-04-18T08:35:55.784Z,5320
2016-04-18T08:36:55.772Z,5636
2016-04-18T08:37:55.446Z,5680
2016-04-18T08:38:54.074Z,6064
2016-04-18T08:39:56.202Z,7100
2016-04-18T08:40:54.673Z,7184
2016-04-18T08:41:55.504Z,7964
2016-04-18T08:42:55.662Z,8092
2016-04-18T08:43:54.712Z,8724
2016-04-18T08:44:55.574Z,9392
2016-04-18T08:45:56.876Z,9344
2016-04-18T08:46:55.548Z,9124
2016-04-18T08:47:55.567Z,9308
2016-04-18T08:48:55.694Z,9172
2016-04-18T08:49:55.556Z,8804
2016-04-18T08:50:55.044Z,8756
2016-04-18T08:51:55.734Z,9124
2016-04-18T08:52:55.862Z,9612
2016-04-18T08:53:54.161Z,10336
2016-04-18T08:54:55.961Z,10596
2016-04-18T08:55:55.542Z,10448
2016-04-18T08:56:56.513Z,10584
2016-04-18T08:57:56.218Z,10916
2016-04-18T08:58:54.486Z,11500
2016-04-18T08:59:55.724Z,11264
2016-04-18T09:01:02.042Z,10908
2016-04-18T09:02:54.201Z,10260
2016-04-18T09:03:56.954Z,9968
2016-04-18T09:04:57.284Z,9832
2016-04-18T09:05:57.444Z,9420
2016-04-18T09:06:58.418Z,8724
2016-04-18T09:07:57.655Z,8040
2016-04-18T09:08:57.767Z,7284
2016-04-18T09:09:57.299Z,7292
2016-04-18T09:10:57.659Z,7940
2016-04-18T09:11:57.162Z,7892
